Time;durP1;ratioP1;P1;durP2;ratioP2;P2;SDS_P1;SDS_P2;PMS_P1;PMS_P2;Temp;Humidity;BMP_temperature;BMP_pressure;BME280_temperature;BME280_humidity;BME280_pressure;Samples;Min_cycle;Max_cycle;Signal;HPM_P1;HPM_P2
2023/10/24 00:01:14;;;;;;;9.38;3.58;;;17.60;99.90;;;;;;5113368;28;20448;-78
2023/10/24 00:03:40;;;;;;;11.45;3.38;;;17.60;99.90;;;;;;5112901;28;20020;-78
2023/10/24 00:06:09;;;;;;;10.35;3.30;;;17.60;99.90;;;;;;5112954;28;20031;-79
2023/10/24 00:08:35;;;;;;;7.15;3.17;;;17.60;99.90;;;;;;5113212;28;20038;-79
2023/10/24 00:11:02;;;;;;;9.02;3.33;;;17.60;99.90;;;;;;5113334;28;20091;-79
2023/10/24 00:13:29;;;;;;;9.23;2.92;;;17.60;99.90;;;;;;5113110;28;20047;-78
2023/10/24 00:15:54;;;;;;;6.80;2.90;;;17.60;99.90;;;;;;5113053;28;20376;-79
2023/10/24 00:18:20;;;;;;;12.57;3.25;;;17.60;99.90;;;;;;5112874;28;20487;-79
2023/10/24 00:20:46;;;;;;;11.85;3.55;;;17.60;99.90;;;;;;5113043;28;20027;-77
2023/10/24 00:23:12;;;;;;;7.10;2.97;;;17.60;99.90;;;;;;5113174;28;20544;-79
2023/10/24 00:25:38;;;;;;;9.00;3.30;;;17.60;99.90;;;;;;5113901;28;20077;-79
2023/10/24 00:28:04;;;;;;;13.07;3.55;;;17.60;99.90;;;;;;5116779;28;20036;-78
2023/10/24 00:30:29;;;;;;;12.55;3.70;;;17.60;99.90;;;;;;5116784;28;20546;-78
2023/10/24 00:32:55;;;;;;;7.63;3.13;;;17.60;99.90;;;;;;5116379;28;20047;-79
2023/10/24 00:35:24;;;;;;;7.10;3.30;;;17.50;99.90;;;;;;5117025;28;20019;-78
2023/10/24 00:37:51;;;;;;;8.38;3.38;;;17.50;99.90;;;;;;5116688;28;20111;-78
2023/10/24 00:40:18;;;;;;;14.65;3.88;;;17.50;99.90;;;;;;5116843;28;20043;-78
2023/10/24 00:42:45;;;;;;;7.88;3.42;;;17.50;99.90;;;;;;5116987;28;20028;-78
2023/10/24 00:45:11;;;;;;;9.88;3.30;;;17.50;99.90;;;;;;5116859;28;20023;-78
2023/10/24 00:47:40;;;;;;;8.20;2.70;;;17.50;99.90;;;;;;5116724;28;20024;-78
2023/10/24 00:50:07;;;;;;;9.82;3.15;;;17.50;99.90;;;;;;5116076;28;20110;-78
2023/10/24 00:52:34;;;;;;;8.93;3.15;;;17.50;99.90;;;;;;5116471;28;20027;-78
2023/10/24 00:55:02;;;;;;;7.97;3.20;;;17.50;99.90;;;;;;5116523;28;20031;-78
2023/10/24 00:57:31;;;;;;;8.05;3.47;;;17.50;99.90;;;;;;5116025;28;20440;-78
2023/10/24 00:59:57;;;;;;;11.65;3.13;;;17.50;99.90;;;;;;5113821;28;20028;-78
2023/10/24 01:02:23;;;;;;;9.70;3.00;;;17.50;99.90;;;;;;5113746;28;20383;-78
2023/10/24 01:04:53;;;;;;;12.77;3.00;;;17.50;99.90;;;;;;5114976;28;20024;-79
2023/10/24 01:07:19;;;;;;;11.05;3.30;;;17.50;99.90;;;;;;5115934;28;20032;-78
2023/10/24 01:09:45;;;;;;;14.82;3.03;;;17.50;99.90;;;;;;5116055;28;20099;-78
2023/10/24 01:12:11;;;;;;;6.15;2.72;;;17.50;99.90;;;;;;5115988;28;20042;-77
2023/10/24 01:14:38;;;;;;;10.00;2.70;;;17.50;99.90;;;;;;5115804;28;20039;-79
2023/10/24 01:17:11;;;;;;;9.20;3.00;;;17.50;99.90;;;;;;5116132;28;20023;-78
2023/10/24 01:19:36;;;;;;;10.48;3.22;;;17.50;99.90;;;;;;5115982;28;20110;-78
2023/10/24 01:22:02;;;;;;;6.63;2.63;;;17.50;99.90;;;;;;5115854;28;20095;-78
2023/10/24 01:24:29;;;;;;;13.05;3.20;;;17.50;99.90;;;;;;5115582;28;20028;-79
2023/10/24 01:26:59;;;;;;;12.00;2.70;;;17.50;99.90;;;;;;5115261;28;20379;-77
2023/10/24 01:29:25;;;;;;;7.85;3.17;;;17.60;99.90;;;;;;5115726;28;20115;-78
2023/10/24 01:31:51;;;;;;;6.50;3.20;;;17.50;99.90;;;;;;5115882;28;20056;-78
2023/10/24 01:34:17;;;;;;;7.18;2.70;;;17.50;99.90;;;;;;5115456;28;20544;-78
2023/10/24 01:36:43;;;;;;;10.18;3.10;;;17.50;99.90;;;;;;5115284;28;20345;-78
2023/10/24 01:39:11;;;;;;;10.02;2.60;;;17.50;99.90;;;;;;5115500;28;20019;-78
2023/10/24 01:41:37;;;;;;;8.68;2.80;;;17.50;99.90;;;;;;5097148;28;20020;-78
2023/10/24 01:44:03;;;;;;;12.10;3.10;;;17.50;99.90;;;;;;5115161;28;20038;-78
2023/10/24 01:46:29;;;;;;;11.43;2.88;;;17.50;99.90;;;;;;5115510;28;20140;-79
2023/10/24 01:48:55;;;;;;;7.97;3.00;;;17.50;99.90;;;;;;5115524;28;20106;-78
2023/10/24 01:51:21;;;;;;;10.57;3.20;;;17.60;99.90;;;;;;5115297;28;20478;-78
2023/10/24 01:53:47;;;;;;;5.28;2.55;;;17.50;99.90;;;;;;5115326;28;20043;-78
2023/10/24 01:56:13;;;;;;;12.73;3.55;;;17.50;99.90;;;;;;5115127;28;20032;-77
2023/10/24 01:58:39;;;;;;;6.75;2.53;;;17.50;99.90;;;;;;5115333;28;20055;-79
2023/10/24 02:01:06;;;;;;;10.32;2.50;;;17.50;99.90;;;;;;5115255;28;20421;-78
2023/10/24 02:03:32;;;;;;;11.73;3.10;;;17.50;99.90;;;;;;5115166;28;20043;-77
2023/10/24 02:05:59;;;;;;;4.90;2.67;;;17.50;99.90;;;;;;5115478;28;20078;-78
2023/10/24 02:08:27;;;;;;;5.97;2.58;;;17.50;99.90;;;;;;5114874;28;20023;-78
2023/10/24 02:10:53;;;;;;;8.52;2.63;;;17.50;99.90;;;;;;5115012;28;20043;-78
2023/10/24 02:13:19;;;;;;;8.05;3.78;;;17.50;99.90;;;;;;5115118;28;20491;-78
2023/10/24 02:15:45;;;;;;;11.88;3.22;;;17.50;99.90;;;;;;5114932;28;20022;-79
2023/10/24 02:18:11;;;;;;;11.98;3.17;;;17.50;99.90;;;;;;5114882;28;20447;-78
2023/10/24 02:20:39;;;;;;;10.68;3.00;;;17.50;99.90;;;;;;5114915;28;20030;-78
2023/10/24 02:23:05;;;;;;;10.13;2.67;;;17.50;99.90;;;;;;5114931;28;20024;-78
2023/10/24 02:25:36;;;;;;;7.88;2.75;;;17.50;99.90;;;;;;5096448;28;20042;-78
2023/10/24 02:28:02;;;;;;;10.65;3.25;;;17.50;99.90;;;;;;5114755;28;20035;-78
2023/10/24 02:30:28;;;;;;;11.70;3.33;;;17.50;99.90;;;;;;5114389;28;20363;-78
2023/10/24 02:33:00;;;;;;;13.77;3.38;;;17.50;99.90;;;;;;5114215;28;20498;-78
2023/10/24 02:35:26;;;;;;;7.55;3.03;;;17.50;99.90;;;;;;5114395;28;20023;-77
2023/10/24 02:37:52;;;;;;;9.20;3.33;;;17.50;99.90;;;;;;5114429;28;20154;-78
2023/10/24 02:40:18;;;;;;;10.18;2.97;;;17.50;99.90;;;;;;5114508;28;20059;-78
2023/10/24 02:42:44;;;;;;;8.30;2.90;;;17.50;99.90;;;;;;5114505;28;20081;-78
2023/10/24 02:45:10;;;;;;;9.10;2.53;;;17.50;99.90;;;;;;5114396;28;20030;-78
2023/10/24 02:47:36;;;;;;;11.55;3.10;;;17.50;99.90;;;;;;5114450;28;20031;-78
2023/10/24 02:50:02;;;;;;;9.27;2.72;;;17.50;99.90;;;;;;5113490;28;20030;-78
2023/10/24 02:52:29;;;;;;;14.45;2.85;;;17.50;99.90;;;;;;5113707;28;20031;-78
2023/10/24 02:55:00;;;;;;;8.73;3.30;;;17.50;99.90;;;;;;5114373;28;20378;-78
2023/10/24 02:57:27;;;;;;;6.68;2.67;;;17.50;99.90;;;;;;5095904;28;20063;-78
2023/10/24 02:59:52;;;;;;;8.93;2.75;;;17.50;99.90;;;;;;5114234;28;20394;-78
2023/10/24 03:02:18;;;;;;;8.63;2.75;;;17.50;99.90;;;;;;5114142;28;20035;-78
2023/10/24 03:04:47;;;;;;;6.38;2.60;;;17.50;99.90;;;;;;5114208;28;20034;-78
2023/10/24 03:07:13;;;;;;;5.47;2.40;;;17.40;99.90;;;;;;5113833;28;20367;-78
2023/10/24 03:09:39;;;;;;;11.52;3.63;;;17.50;99.90;;;;;;5113789;28;20023;-78
2023/10/24 03:12:09;;;;;;;20.77;13.68;;;17.50;99.90;;;;;;5114083;28;20986;-77
2023/10/24 03:14:36;;;;;;;24.17;13.48;;;17.50;99.90;;;;;;5113681;28;20136;-77
2023/10/24 03:17:02;;;;;;;13.82;6.80;;;17.40;99.90;;;;;;5114014;28;20015;-78
2023/10/24 03:19:28;;;;;;;12.77;2.70;;;17.40;99.90;;;;;;5113345;28;20032;-77
2023/10/24 03:21:54;;;;;;;5.38;2.15;;;17.40;99.90;;;;;;5113726;28;20024;-78
2023/10/24 03:24:20;;;;;;;6.43;2.63;;;17.40;99.90;;;;;;5113890;28;20027;-76
2023/10/24 03:26:46;;;;;;;7.63;2.38;;;17.40;99.90;;;;;;5113766;28;20073;-78
2023/10/24 03:29:11;;;;;;;8.13;2.75;;;17.40;99.90;;;;;;5113804;28;20051;-79
2023/10/24 03:31:37;;;;;;;13.13;2.83;;;17.50;99.90;;;;;;5095267;28;20031;-79
2023/10/24 03:34:03;;;;;;;6.63;2.50;;;17.50;99.90;;;;;;5113409;28;20077;-78
2023/10/24 03:36:29;;;;;;;8.25;3.22;;;17.50;99.90;;;;;;5113832;28;21110;-78
2023/10/24 03:38:54;;;;;;;6.88;2.83;;;17.40;99.90;;;;;;5113674;28;20029;-78
2023/10/24 03:41:20;;;;;;;10.65;3.05;;;17.40;99.90;;;;;;5113502;28;20020;-78
2023/10/24 03:43:49;;;;;;;9.88;3.20;;;17.40;99.90;;;;;;5113678;28;20475;-78
2023/10/24 03:46:15;;;;;;;11.95;2.90;;;17.40;99.90;;;;;;5113547;28;20093;-78
2023/10/24 03:48:41;;;;;;;6.88;2.65;;;17.40;99.90;;;;;;5113306;28;20020;-79
2023/10/24 03:51:07;;;;;;;9.55;2.50;;;17.40;99.90;;;;;;5113710;28;20031;-78
2023/10/24 03:53:33;;;;;;;8.55;2.85;;;17.40;99.90;;;;;;5113414;28;20031;-78
2023/10/24 03:55:59;;;;;;;12.02;3.30;;;17.30;99.90;;;;;;5113457;28;20024;-78
2023/10/24 03:58:26;;;;;;;12.43;3.78;;;17.40;99.90;;;;;;5113729;28;20418;-79
2023/10/24 04:00:53;;;;;;;10.68;2.83;;;17.40;99.90;;;;;;5096457;28;20054;-78
2023/10/24 04:03:20;;;;;;;11.15;3.05;;;17.40;99.90;;;;;;5117428;28;20034;-78
2023/10/24 04:05:46;;;;;;;9.60;2.90;;;17.40;99.90;;;;;;5117708;28;20103;-78
2023/10/24 04:08:12;;;;;;;5.75;2.42;;;17.40;99.90;;;;;;5117638;28;20061;-78
2023/10/24 04:10:38;;;;;;;9.68;2.65;;;17.40;99.90;;;;;;5117164;28;20027;-79
2023/10/24 04:13:04;;;;;;;8.77;2.88;;;17.40;99.90;;;;;;5117181;28;20051;-78
2023/10/24 04:15:30;;;;;;;10.73;2.85;;;17.30;99.90;;;;;;5117257;28;20020;-78
2023/10/24 04:17:56;;;;;;;8.82;2.47;;;17.40;99.90;;;;;;5117104;28;20020;-78
2023/10/24 04:20:21;;;;;;;8.32;2.67;;;17.30;99.90;;;;;;5098908;28;20119;-78
2023/10/24 04:22:47;;;;;;;9.65;2.92;;;17.30;99.90;;;;;;5117187;28;20181;-79
2023/10/24 04:25:13;;;;;;;6.88;2.42;;;17.30;99.90;;;;;;5117200;28;20020;-78
2023/10/24 04:27:39;;;;;;;9.57;3.03;;;17.30;99.90;;;;;;5117573;28;20035;-78
2023/10/24 04:30:06;;;;;;;13.23;3.53;;;17.30;99.90;;;;;;5117158;28;20020;-77
2023/10/24 04:32:32;;;;;;;13.13;3.33;;;17.30;99.90;;;;;;5116826;28;20494;-79
2023/10/24 04:34:58;;;;;;;8.50;2.90;;;17.30;99.90;;;;;;5117015;28;20042;-78
2023/10/24 04:37:24;;;;;;;9.52;2.50;;;17.30;99.90;;;;;;5117079;28;20026;-78
2023/10/24 04:39:50;;;;;;;9.10;2.47;;;17.30;99.90;;;;;;5116661;28;20054;-78
2023/10/24 04:42:16;;;;;;;8.45;2.85;;;17.30;99.90;;;;;;5117013;28;20484;-79
2023/10/24 04:44:42;;;;;;;7.10;2.78;;;17.30;99.90;;;;;;5113034;28;20044;-78
2023/10/24 04:47:08;;;;;;;13.35;2.97;;;17.30;99.90;;;;;;5096216;28;20453;-78
2023/10/24 04:49:36;;;;;;;8.23;2.17;;;17.30;99.90;;;;;;5096338;28;20115;-77
2023/10/24 04:52:03;;;;;;;9.50;2.58;;;17.30;99.90;;;;;;5077967;28;20028;-78
2023/10/24 04:54:28;;;;;;;9.43;2.80;;;17.30;99.90;;;;;;5096148;28;20039;-79
2023/10/24 04:56:55;;;;;;;7.80;2.40;;;17.30;99.90;;;;;;5096145;28;20028;-78
2023/10/24 04:59:21;;;;;;;10.40;2.70;;;17.30;99.90;;;;;;5096004;28;20031;-78
2023/10/24 05:01:49;;;;;;;6.35;2.00;;;17.40;99.90;;;;;;5095757;28;20103;-79
2023/10/24 05:04:15;;;;;;;5.25;2.25;;;17.30;99.90;;;;;;5095478;28;20024;-80
2023/10/24 05:06:41;;;;;;;14.23;2.60;;;17.30;99.90;;;;;;5095978;28;20437;-79
2023/10/24 05:09:07;;;;;;;6.88;2.03;;;17.30;99.90;;;;;;5096024;28;20399;-79
2023/10/24 05:11:39;;;;;;;8.63;2.85;;;17.40;99.90;;;;;;5095258;28;20024;-79
2023/10/24 05:14:05;;;;;;;6.78;2.20;;;17.30;99.90;;;;;;5095155;28;20028;-80
2023/10/24 05:16:31;;;;;;;9.32;2.22;;;17.30;99.90;;;;;;5095460;28;20016;-79
2023/10/24 05:19:00;;;;;;;8.98;2.47;;;17.30;99.90;;;;;;5095881;28;20149;-79
2023/10/24 05:21:26;;;;;;;6.10;2.22;;;17.30;99.90;;;;;;5098561;28;20077;-80
2023/10/24 05:23:52;;;;;;;7.07;1.92;;;17.30;99.90;;;;;;5097681;28;20032;-79
2023/10/24 05:26:17;;;;;;;6.72;2.20;;;17.30;99.90;;;;;;5095607;28;20024;-78
2023/10/24 05:28:43;;;;;;;5.47;2.08;;;17.30;99.90;;;;;;5095973;28;20031;-79
2023/10/24 05:31:12;;;;;;;5.43;2.50;;;17.30;99.90;;;;;;5095387;28;20421;-79
2023/10/24 05:33:38;;;;;;;14.55;2.95;;;17.30;99.90;;;;;;5095152;28;20408;-79
2023/10/24 05:36:05;;;;;;;8.38;2.85;;;17.30;99.90;;;;;;5095244;28;20028;-78
2023/10/24 05:38:32;;;;;;;9.23;2.50;;;17.30;99.90;;;;;;5095121;28;20472;-79
2023/10/24 05:41:00;;;;;;;11.57;3.17;;;17.30;99.90;;;;;;5095275;28;20484;-83
2023/10/24 05:43:26;;;;;;;8.50;2.63;;;17.30;99.90;;;;;;5095337;28;20612;-83
2023/10/24 05:45:52;;;;;;;6.18;2.63;;;17.30;99.90;;;;;;5110559;28;20028;-83
2023/10/24 05:48:18;;;;;;;7.35;2.55;;;17.30;99.90;;;;;;5094924;28;20061;-84
2023/10/24 05:50:44;;;;;;;8.55;2.42;;;17.30;99.90;;;;;;5095290;28;20479;-83
2023/10/24 05:53:10;;;;;;;10.63;2.55;;;17.30;99.90;;;;;;5094832;28;20113;-84
2023/10/24 05:55:36;;;;;;;6.95;2.35;;;17.30;99.90;;;;;;5094334;28;20066;-83
2023/10/24 05:58:01;;;;;;;5.28;2.80;;;17.30;99.90;;;;;;5094969;28;20059;-84
2023/10/24 06:00:28;;;;;;;8.68;2.53;;;17.30;99.90;;;;;;5092405;28;20505;-84
2023/10/24 06:02:54;;;;;;;7.65;2.35;;;17.30;99.90;;;;;;5088776;28;20107;-82
2023/10/24 06:05:20;;;;;;;8.77;2.50;;;17.30;99.90;;;;;;5087152;28;20096;-83
2023/10/24 06:07:46;;;;;;;8.15;2.35;;;17.30;99.90;;;;;;5094848;28;20028;-83
2023/10/24 06:10:14;;;;;;;8.88;2.30;;;17.40;99.90;;;;;;5094768;28;20043;-84
2023/10/24 06:12:40;;;;;;;8.80;2.70;;;17.30;99.90;;;;;;5094841;28;20035;-84
2023/10/24 06:15:06;;;;;;;7.38;2.40;;;17.30;99.90;;;;;;5094458;28;20028;-83
2023/10/24 06:17:33;;;;;;;8.82;2.60;;;17.30;99.90;;;;;;5094562;28;20081;-84
2023/10/24 06:19:59;;;;;;;5.65;2.20;;;17.40;99.90;;;;;;5094313;28;20024;-83
2023/10/24 06:22:28;;;;;;;5.50;2.40;;;17.40;99.90;;;;;;5093672;28;20023;-83
2023/10/24 06:24:55;;;;;;;5.63;1.98;;;17.40;99.90;;;;;;5070631;28;20068;-83
2023/10/24 06:27:21;;;;;;;11.02;2.33;;;17.40;99.90;;;;;;5085537;28;20028;-82
2023/10/24 06:29:48;;;;;;;8.27;2.03;;;17.40;99.90;;;;;;5055668;28;20028;-82
2023/10/24 06:32:13;;;;;;;8.82;2.10;;;17.40;99.90;;;;;;5073315;28;20032;-82
2023/10/24 06:34:39;;;;;;;13.18;2.08;;;17.40;99.90;;;;;;5073299;28;20396;-83
2023/10/24 06:37:08;;;;;;;13.02;3.22;;;17.40;99.90;;;;;;5073499;28;20021;-83
2023/10/24 06:39:34;;;;;;;4.68;2.00;;;17.40;99.90;;;;;;5071969;28;20031;-82
2023/10/24 06:42:00;;;;;;;6.03;2.03;;;17.40;99.90;;;;;;5072312;28;20032;-75
2023/10/24 06:44:27;;;;;;;7.07;2.13;;;17.50;99.90;;;;;;5073423;28;20504;-83
2023/10/24 06:46:53;;;;;;;7.18;2.17;;;17.40;99.90;;;;;;5072938;28;20098;-81
2023/10/24 06:49:19;;;;;;;7.40;2.28;;;17.40;99.90;;;;;;5073269;28;20083;-82
2023/10/24 06:51:50;;;;;;;5.32;2.00;;;17.40;99.90;;;;;;5073176;28;20024;-82
2023/10/24 06:54:16;;;;;;;9.25;2.55;;;17.50;99.90;;;;;;5073058;28;20036;-80
2023/10/24 06:56:41;;;;;;;8.25;1.80;;;17.50;99.90;;;;;;5073537;28;20020;-84
2023/10/24 06:59:07;;;;;;;7.78;2.20;;;17.50;99.90;;;;;;5073595;28;20035;-81
2023/10/24 07:01:35;;;;;;;7.55;1.75;;;17.50;99.90;;;;;;5073613;28;20484;-85
2023/10/24 07:04:01;;;;;;;7.72;1.88;;;17.50;99.90;;;;;;5073584;28;20086;-73
2023/10/24 07:06:30;;;;;;;7.30;1.95;;;17.50;99.90;;;;;;5073486;28;20016;-76
2023/10/24 07:09:00;;;;;;;8.02;1.88;;;17.50;99.90;;;;;;5073505;28;20086;-76
2023/10/24 07:11:31;;;;;;;7.45;1.75;;;17.50;99.90;;;;;;5073590;28;20119;-75
2023/10/24 07:13:56;;;;;;;7.95;1.70;;;17.50;99.90;;;;;;5073007;28;20388;-76
2023/10/24 07:16:22;;;;;;;7.45;1.60;;;17.50;99.90;;;;;;5072974;28;20497;-75
2023/10/24 07:18:48;;;;;;;7.18;1.75;;;17.50;99.90;;;;;;5071940;28;20026;-75
2023/10/24 07:21:17;;;;;;;16.15;1.80;;;17.50;99.90;;;;;;5071797;28;20557;-75
2023/10/24 07:23:45;;;;;;;5.85;1.73;;;17.60;99.90;;;;;;5072509;28;20484;-75
2023/10/24 07:26:11;;;;;;;4.82;1.38;;;17.50;99.90;;;;;;5073061;28;20381;-75
2023/10/24 07:28:36;;;;;;;12.45;1.70;;;17.50;99.90;;;;;;5072832;28;20409;-75
2023/10/24 07:31:05;;;;;;;7.15;1.70;;;17.60;99.90;;;;;;5054882;28;20024;-75
2023/10/24 07:33:31;;;;;;;6.53;2.00;;;17.60;99.90;;;;;;5072112;28;20048;-75
2023/10/24 07:36:06;;;;;;;6.35;1.70;;;17.50;99.90;;;;;;5072185;28;20028;-75
2023/10/24 07:38:32;;;;;;;7.57;1.75;;;17.50;99.90;;;;;;5073156;28;20040;-75
2023/10/24 07:40:59;;;;;;;10.38;1.70;;;17.50;99.90;;;;;;5073053;28;20024;-76
2023/10/24 07:43:25;;;;;;;6.57;1.95;;;17.50;99.90;;;;;;5073098;28;20035;-75
2023/10/24 07:45:54;;;;;;;6.25;1.80;;;17.50;99.90;;;;;;5054904;28;20024;-75
2023/10/24 07:48:20;;;;;;;8.30;2.20;;;17.50;99.90;;;;;;5072467;28;20024;-75
2023/10/24 07:51:04;;;;;;;10.48;2.28;;;17.50;99.90;;;;;;5072990;28;20068;-75
2023/10/24 07:53:29;;;;;;;9.13;2.00;;;17.50;99.90;;;;;;5072806;28;20446;-76
2023/10/24 07:55:55;;;;;;;8.88;2.38;;;17.50;99.90;;;;;;5073070;28;20480;-75
2023/10/24 07:58:21;;;;;;;9.68;2.40;;;17.50;99.90;;;;;;5073141;28;20025;-76
2023/10/24 08:00:48;;;;;;;8.32;1.80;;;17.50;99.90;;;;;;5072714;28;20028;-76
2023/10/24 08:03:15;;;;;;;9.00;1.90;;;17.50;99.90;;;;;;5072806;28;20416;-76
2023/10/24 08:05:41;;;;;;;6.93;1.98;;;17.50;99.90;;;;;;5072948;28;20020;-75
2023/10/24 08:08:07;;;;;;;7.00;1.88;;;17.50;99.90;;;;;;5072881;28;20117;-76
2023/10/24 08:10:34;;;;;;;10.30;1.90;;;17.50;99.90;;;;;;5072743;28;20029;-75
2023/10/24 08:13:01;;;;;;;4.88;1.88;;;17.50;99.90;;;;;;5072167;28;20511;-75
2023/10/24 08:15:33;;;;;;;5.13;1.90;;;17.50;99.90;;;;;;5072833;28;20486;-75
2023/10/24 08:17:58;;;;;;;9.10;2.22;;;17.50;99.90;;;;;;5072883;28;20092;-75
2023/10/24 08:20:25;;;;;;;7.57;2.05;;;17.50;99.90;;;;;;5072935;28;20158;-75
2023/10/24 08:22:51;;;;;;;12.18;2.33;;;17.50;99.90;;;;;;5072688;28;20479;-75
2023/10/24 08:25:17;;;;;;;8.00;1.70;;;17.50;99.90;;;;;;5072767;28;20056;-75
2023/10/24 08:27:44;;;;;;;11.00;2.55;;;17.50;99.90;;;;;;5072694;28;20396;-75
2023/10/24 08:30:13;;;;;;;9.50;2.20;;;17.50;99.90;;;;;;5072658;28;20032;-76
2023/10/24 08:32:39;;;;;;;11.65;2.70;;;17.50;99.90;;;;;;5072258;28;20046;-74
2023/10/24 08:35:05;;;;;;;8.68;2.08;;;17.50;99.90;;;;;;5072377;28;20043;-75
2023/10/24 08:37:32;;;;;;;8.07;2.00;;;17.50;99.90;;;;;;5072314;28;20388;-75
2023/10/24 08:40:01;;;;;;;6.00;2.15;;;17.50;99.90;;;;;;5072387;28;20028;-74
2023/10/24 08:42:29;;;;;;;4.43;1.83;;;17.50;99.90;;;;;;5072510;28;20017;-76
2023/10/24 08:44:55;;;;;;;10.85;2.25;;;17.50;99.90;;;;;;5072556;28;20036;-75
2023/10/24 08:47:22;;;;;;;7.80;2.00;;;17.50;99.90;;;;;;5074333;28;20027;-74
2023/10/24 08:49:49;;;;;;;12.75;2.20;;;17.50;99.90;;;;;;5075207;28;20021;-74
2023/10/24 08:52:15;;;;;;;10.00;2.55;;;17.50;99.90;;;;;;5075352;28;20013;-74
2023/10/24 08:54:40;;;;;;;16.70;4.20;;;17.50;99.90;;;;;;5075732;28;20073;-74
2023/10/24 08:57:07;;;;;;;16.58;2.75;;;17.50;99.90;;;;;;5075250;28;20025;-75
2023/10/24 08:59:38;;;;;;;16.75;3.13;;;17.50;99.90;;;;;;5075935;28;20023;-75
2023/10/24 09:02:04;;;;;;;12.20;2.90;;;17.50;99.90;;;;;;5075476;28;20029;-74
2023/10/24 09:04:35;;;;;;;11.50;3.13;;;17.50;99.90;;;;;;5075486;28;20021;-75
2023/10/24 09:07:03;;;;;;;9.85;2.92;;;17.50;99.90;;;;;;5075505;28;20032;-74
2023/10/24 09:09:29;;;;;;;16.08;3.22;;;17.40;99.90;;;;;;5075394;28;20109;-74
2023/10/24 09:11:58;;;;;;;11.80;2.33;;;17.40;99.90;;;;;;5075544;28;20063;-74
2023/10/24 09:14:25;;;;;;;11.27;2.97;;;17.40;99.90;;;;;;5075369;28;20481;-74
2023/10/24 09:16:57;;;;;;;10.65;2.30;;;17.40;99.90;;;;;;5073624;28;20020;-74
2023/10/24 09:19:23;;;;;;;11.13;2.70;;;17.40;99.90;;;;;;5074897;28;20033;-74
2023/10/24 09:21:52;;;;;;;11.07;2.38;;;17.40;99.90;;;;;;5075515;28;20032;-74
2023/10/24 09:24:19;;;;;;;9.38;2.45;;;17.40;99.90;;;;;;5075657;28;20374;-75
2023/10/24 09:26:56;;;;;;;14.30;2.38;;;17.40;99.90;;;;;;5074916;28;20021;-74
2023/10/24 09:29:29;;;;;;;12.88;3.03;;;17.40;99.90;;;;;;5075196;28;20024;-74
2023/10/24 09:31:58;;;;;;;12.20;2.67;;;17.40;99.90;;;;;;5075332;28;20024;-74
2023/10/24 09:34:26;;;;;;;21.00;11.80;;;17.40;99.90;;;;;;5092277;28;20036;-75
2023/10/24 09:36:53;;;;;;;18.90;6.60;;;17.40;99.90;;;;;;5095172;28;20472;-74
2023/10/24 09:39:19;;;;;;;15.68;5.90;;;17.40;99.90;;;;;;5077029;28;20093;-75
2023/10/24 09:41:47;;;;;;;13.55;3.58;;;17.40;99.90;;;;;;5095274;28;20025;-76
2023/10/24 09:44:13;;;;;;;12.88;2.53;;;17.40;99.90;;;;;;5095121;28;20135;-74
2023/10/24 09:46:39;;;;;;;15.77;3.00;;;17.40;99.90;;;;;;5094996;28;20118;-74
2023/10/24 09:49:07;;;;;;;15.27;2.53;;;17.40;99.90;;;;;;5094789;28;20044;-75
2023/10/24 09:51:36;;;;;;;17.92;3.05;;;17.40;99.90;;;;;;5095247;28;20028;-75
2023/10/24 09:54:07;;;;;;;12.68;2.50;;;17.40;99.90;;;;;;5094571;28;20387;-74
2023/10/24 09:56:36;;;;;;;16.17;2.33;;;17.40;99.90;;;;;;5095238;28;20019;-75
2023/10/24 09:59:02;;;;;;;8.45;2.20;;;17.50;99.90;;;;;;5096057;28;20016;-75
2023/10/24 10:01:29;;;;;;;12.13;2.67;;;17.50;99.90;;;;;;5094849;28;20028;-75
2023/10/24 10:04:01;;;;;;;15.32;2.70;;;17.50;99.90;;;;;;5076540;28;20031;-74
2023/10/24 10:06:30;;;;;;;;;;;17.50;99.90;;;;;;5095203;28;20024;-75
2023/10/24 10:08:59;;;;;;;14.45;2.38;;;17.60;99.90;;;;;;5094698;28;19904;-75
2023/10/24 10:11:31;;;;;;;11.45;2.10;;;17.60;99.90;;;;;;5094703;28;20024;-75
2023/10/24 10:14:09;;;;;;;10.23;2.40;;;17.60;99.90;;;;;;5094510;28;20035;-75
2023/10/24 10:17:02;;;;;;;15.40;2.70;;;17.60;99.90;;;;;;5094400;28;20031;-75
2023/10/24 10:19:47;;;;;;;11.65;2.50;;;17.70;99.90;;;;;;5094684;28;20069;-75
2023/10/24 10:22:57;;;;;;;17.23;2.95;;;17.70;99.90;;;;;;5095064;28;20546;-75
2023/10/24 10:25:53;;;;;;;16.60;2.20;;;17.80;99.90;;;;;;5012103;28;20026;-75
2023/10/24 10:28:22;;;;;;;19.05;2.70;;;17.80;99.90;;;;;;5012191;28;20026;-75
2023/10/24 10:31:23;;;;;;;14.48;2.90;;;17.80;99.90;;;;;;5072018;28;20044;-74
2023/10/24 10:33:50;;;;;;;9.55;2.90;;;17.90;99.90;;;;;;5061222;28;20052;-74
2023/10/24 10:36:19;;;;;;;10.88;2.47;;;17.90;99.90;;;;;;5094202;28;20048;-73
2023/10/24 10:38:47;;;;;;;5.18;1.85;;;17.90;99.90;;;;;;5093938;28;20024;-74
2023/10/24 10:41:22;;;;;;;13.80;2.50;;;18.00;99.90;;;;;;5094026;28;20357;-74
2023/10/24 10:43:59;;;;;;;11.65;2.45;;;18.00;99.90;;;;;;5094020;28;20031;-74
2023/10/24 10:46:26;;;;;;;10.10;2.33;;;18.00;99.90;;;;;;5094018;28;20468;-74
2023/10/24 10:49:12;;;;;;;12.07;2.42;;;18.00;99.90;;;;;;5093780;28;20028;-74
2023/10/24 10:51:39;;;;;;;13.02;2.63;;;18.00;99.90;;;;;;5092305;28;20036;-75
2023/10/24 10:54:21;;;;;;;13.02;2.30;;;18.00;99.90;;;;;;5094107;28;20116;-75
2023/10/24 10:56:49;;;;;;;12.83;2.87;;;18.00;99.90;;;;;;5093945;28;20016;-75
2023/10/24 10:59:36;;;;;;;16.20;2.88;;;18.00;99.90;;;;;;5072345;28;20389;-74
2023/10/24 11:02:23;;;;;;;13.65;2.35;;;18.10;99.90;;;;;;5092391;28;20047;-75
2023/10/24 11:04:49;;;;;;;11.35;2.80;;;18.00;99.90;;;;;;5093261;28;20563;-75
2023/10/24 11:07:15;;;;;;;12.85;2.90;;;18.10;99.90;;;;;;5093964;28;20020;-74
2023/10/24 11:09:42;;;;;;;10.63;2.38;;;18.00;99.90;;;;;;5093451;28;20027;-75
2023/10/24 11:12:28;;;;;;;11.88;3.10;;;18.00;99.90;;;;;;5093745;28;20043;-75
2023/10/24 11:15:16;;;;;;;13.02;2.67;;;18.00;99.90;;;;;;5093594;28;20126;-74
2023/10/24 11:17:43;;;;;;;10.30;2.60;;;18.00;99.90;;;;;;5093819;28;20055;-75
2023/10/24 11:20:10;;;;;;;15.75;2.78;;;18.00;99.90;;;;;;5093544;28;20055;-75
2023/10/24 11:22:45;;;;;;;14.55;3.50;;;18.00;99.90;;;;;;5075381;28;20052;-75
2023/10/24 11:25:16;;;;;;;11.65;3.00;;;18.00;99.90;;;;;;5093464;28;20035;-75
2023/10/24 11:27:48;;;;;;;19.38;3.60;;;18.00;99.90;;;;;;5093417;28;20387;-75
2023/10/24 11:30:14;;;;;;;15.43;3.47;;;18.00;99.90;;;;;;5093553;28;20024;-75
2023/10/24 11:32:40;;;;;;;15.57;2.80;;;18.00;99.90;;;;;;5092989;28;20066;-75
2023/10/24 11:35:06;;;;;;;14.48;3.20;;;18.00;99.90;;;;;;5093317;28;21228;-74
2023/10/24 11:37:33;;;;;;;15.30;3.53;;;17.90;99.90;;;;;;5093185;28;20031;-74
2023/10/24 11:39:58;;;;;;;14.35;2.70;;;17.90;99.90;;;;;;5093220;28;20028;-75
2023/10/24 11:42:27;;;;;;;19.33;3.97;;;17.90;99.90;;;;;;5093403;28;20409;-75
2023/10/24 11:44:53;;;;;;;17.80;3.45;;;17.90;99.90;;;;;;5093365;28;20101;-75
2023/10/24 11:47:18;;;;;;;11.40;2.90;;;17.90;99.90;;;;;;5093092;28;20024;-74
2023/10/24 11:49:46;;;;;;;18.65;3.40;;;17.90;99.90;;;;;;5093310;28;20024;-73
2023/10/24 11:52:12;;;;;;;15.38;2.70;;;18.00;99.90;;;;;;5093001;28;20090;-74
2023/10/24 11:54:42;;;;;;;22.48;3.50;;;18.00;99.90;;;;;;5093009;28;20036;-75
2023/10/24 11:57:08;;;;;;;21.55;3.50;;;18.00;99.90;;;;;;5092945;28;20028;-74
2023/10/24 11:59:35;;;;;;;10.38;2.65;;;18.00;99.90;;;;;;5093104;28;20020;-75
2023/10/24 12:02:02;;;;;;;20.75;2.95;;;18.00;99.90;;;;;;5093185;28;20028;-74
2023/10/24 12:04:29;;;;;;;13.07;2.42;;;18.10;99.90;;;;;;5093083;28;20391;-74
2023/10/24 12:07:05;;;;;;;21.90;3.33;;;18.10;99.90;;;;;;5093229;28;20401;-75
2023/10/24 12:09:37;;;;;;;24.52;3.80;;;18.20;99.90;;;;;;5093090;28;20024;-74
2023/10/24 12:12:07;;;;;;;19.23;3.78;;;18.20;99.90;;;;;;5093184;28;20028;-75
2023/10/24 12:14:37;;;;;;;20.67;3.05;;;18.30;99.90;;;;;;5092984;28;20066;-75
2023/10/24 12:17:03;;;;;;;16.55;3.40;;;18.30;99.90;;;;;;5092776;28;20012;-75
2023/10/24 12:19:29;;;;;;;28.80;4.68;;;18.30;99.90;;;;;;5092842;28;20039;-74
2023/10/24 12:21:55;;;;;;;26.77;4.32;;;18.30;99.90;;;;;;5094116;28;20020;-75
2023/10/24 12:24:24;;;;;;;18.58;3.50;;;18.30;99.90;;;;;;5078807;28;20058;-75
2023/10/24 12:26:50;;;;;;;27.42;5.20;;;18.30;99.90;;;;;;5097050;28;20020;-75
2023/10/24 12:29:17;;;;;;;13.68;3.40;;;18.30;99.90;;;;;;5096952;28;20024;-75
2023/10/24 12:31:45;;;;;;;23.45;4.10;;;18.30;99.90;;;;;;5096659;28;20031;-74
2023/10/24 12:34:12;;;;;;;22.35;4.32;;;18.30;99.90;;;;;;5096555;28;20393;-74
2023/10/24 12:36:38;;;;;;;23.05;3.78;;;18.30;99.90;;;;;;5096768;28;20044;-74
2023/10/24 12:39:04;;;;;;;20.58;4.43;;;18.30;99.90;;;;;;5096648;28;20036;-74
2023/10/24 12:41:32;;;;;;;28.02;5.18;;;18.30;99.90;;;;;;5096548;28;20023;-75
2023/10/24 12:43:58;;;;;;;24.02;4.25;;;18.30;99.90;;;;;;5096637;28;20020;-75
2023/10/24 12:46:24;;;;;;;24.20;4.78;;;18.30;99.90;;;;;;5096489;28;20020;-73